Time;durP1;ratioP1;P1;durP2;ratioP2;P2;SDS_P1;SDS_P2;PMS_P1;PMS_P2;Temp;Humidity;BMP_temperature;BMP_pressure;BME280_temperature;BME280_humidity;BME280_pressure;Samples;Min_cycle;Max_cycle;Signal;HPM_P1;HPM_P2
2020/12/17 00:01:57;;;;;;;6.60;4.63;;;9.90;99.90;;;;;;4990598;28;20438;-78
2020/12/17 00:04:23;;;;;;;5.17;4.33;;;9.90;99.90;;;;;;4974997;28;20215;-77
2020/12/17 00:06:50;;;;;;;6.17;4.73;;;9.90;99.90;;;;;;4980835;28;20473;-77
2020/12/17 00:09:15;;;;;;;6.70;4.90;;;9.70;99.90;;;;;;4956126;28;20808;-78
2020/12/17 00:11:41;;;;;;;5.30;3.87;;;9.70;99.90;;;;;;4975069;28;20433;-78
2020/12/17 00:14:07;;;;;;;6.47;4.10;;;9.70;99.90;;;;;;4975255;28;20228;-77
2020/12/17 00:16:33;;;;;;;5.70;4.43;;;9.70;99.90;;;;;;4974341;28;20184;-78
2020/12/17 00:18:59;;;;;;;7.10;4.63;;;9.70;99.90;;;;;;4974857;28;20453;-77
2020/12/17 00:21:24;;;;;;;4.90;4.30;;;9.70;99.90;;;;;;4975331;28;20195;-77
2020/12/17 00:23:50;;;;;;;5.87;4.50;;;9.60;99.90;;;;;;4986247;28;20176;-79
2020/12/17 00:26:16;;;;;;;5.27;4.33;;;9.60;99.90;;;;;;4966112;28;20200;-78
2020/12/17 00:28:42;;;;;;;5.43;4.37;;;9.60;99.90;;;;;;4955687;28;20260;-78
2020/12/17 00:31:07;;;;;;;4.50;4.10;;;9.50;99.90;;;;;;4969742;28;20519;-78
2020/12/17 00:33:33;;;;;;;5.37;4.73;;;9.50;99.90;;;;;;4975227;28;20183;-78
2020/12/17 00:35:59;;;;;;;5.50;4.67;;;9.50;99.90;;;;;;4969347;28;20210;-78
2020/12/17 00:38:24;;;;;;;5.13;4.13;;;9.50;99.90;;;;;;4975256;28;20248;-77
2020/12/17 00:40:50;;;;;;;4.50;4.10;;;9.50;99.90;;;;;;4974126;28;20207;-78
2020/12/17 00:43:16;;;;;;;6.53;5.10;;;9.50;99.90;;;;;;4989347;28;20181;-78
2020/12/17 00:45:41;;;;;;;5.03;4.27;;;9.50;99.90;;;;;;4967636;28;20214;-78
2020/12/17 00:48:07;;;;;;;4.77;4.30;;;9.50;99.90;;;;;;4974252;28;20215;-79
2020/12/17 00:50:33;;;;;;;4.20;3.47;;;9.40;99.90;;;;;;4973943;28;20237;-78
2020/12/17 00:52:58;;;;;;;5.33;4.33;;;9.40;99.90;;;;;;4974466;28;20195;-79
2020/12/17 00:55:24;;;;;;;6.47;5.40;;;9.40;99.90;;;;;;4988762;28;20215;-79
2020/12/17 00:57:50;;;;;;;5.23;4.70;;;9.40;99.90;;;;;;4956731;28;20650;-78
2020/12/17 01:00:15;;;;;;;6.57;4.90;;;9.40;99.90;;;;;;4965158;28;20301;-78
2020/12/17 01:02:42;;;;;;;5.30;4.13;;;9.30;99.90;;;;;;4974623;28;20219;-79
2020/12/17 01:05:08;;;;;;;4.63;4.10;;;9.20;99.90;;;;;;4973892;28;20317;-78
2020/12/17 01:07:33;;;;;;;5.20;3.83;;;9.10;99.90;;;;;;4956282;28;20910;-78
2020/12/17 01:09:59;;;;;;;5.80;4.00;;;9.10;99.90;;;;;;4969371;28;20214;-78
2020/12/17 01:12:25;;;;;;;8.33;4.40;;;9.20;99.90;;;;;;4974521;28;20285;-78
2020/12/17 01:14:51;;;;;;;7.57;4.60;;;9.40;99.90;;;;;;4973102;28;20262;-78
2020/12/17 01:17:16;;;;;;;5.20;4.43;;;9.40;99.90;;;;;;4973819;28;20191;-78
2020/12/17 01:19:42;;;;;;;8.63;4.77;;;9.50;99.90;;;;;;4973598;28;20459;-78
2020/12/17 01:22:08;;;;;;;4.53;3.70;;;9.50;99.90;;;;;;4974472;28;20245;-78
2020/12/17 01:24:34;;;;;;;4.60;4.00;;;9.60;99.90;;;;;;4972958;28;20472;-78
2020/12/17 01:26:59;;;;;;;7.63;4.17;;;9.60;99.90;;;;;;4973305;28;20624;-78
2020/12/17 01:29:26;;;;;;;4.97;4.47;;;9.60;99.90;;;;;;4973208;28;20204;-78
2020/12/17 01:31:56;;;;;;;7.37;4.50;;;9.60;99.90;;;;;;4973929;28;20199;-79
2020/12/17 01:34:23;;;;;;;4.73;4.33;;;9.70;99.90;;;;;;4972947;28;20465;-78
2020/12/17 01:36:55;;;;;;;5.40;4.03;;;9.60;99.90;;;;;;4973108;28;20541;-77
2020/12/17 01:39:22;;;;;;;5.93;5.00;;;9.70;99.90;;;;;;4972655;28;20459;-77
2020/12/17 01:41:48;;;;;;;5.57;4.43;;;9.80;99.90;;;;;;4973760;28;20449;-78
2020/12/17 01:44:14;;;;;;;5.17;4.67;;;9.80;99.90;;;;;;4973359;28;20439;-79
2020/12/17 01:46:40;;;;;;;5.30;4.30;;;9.90;99.90;;;;;;4989103;28;20497;-78
2020/12/17 01:49:07;;;;;;;6.50;5.63;;;9.90;99.90;;;;;;4979833;28;20466;-78
2020/12/17 01:51:33;;;;;;;6.10;5.40;;;9.80;99.90;;;;;;4973711;28;20195;-78
2020/12/17 01:53:58;;;;;;;5.63;5.00;;;9.80;99.90;;;;;;4987040;28;20439;-78
2020/12/17 01:56:27;;;;;;;6.40;5.30;;;9.80;99.90;;;;;;4972227;28;20194;-77
2020/12/17 01:58:57;;;;;;;5.70;4.90;;;9.80;99.90;;;;;;4972967;28;20186;-78
2020/12/17 02:01:25;;;;;;;7.50;5.70;;;9.90;99.90;;;;;;4988173;28;20453;-77
2020/12/17 02:03:54;;;;;;;7.73;6.07;;;9.80;99.90;;;;;;4964682;28;20423;-78
2020/12/17 02:06:19;;;;;;;6.47;5.17;;;9.80;99.90;;;;;;4972453;28;20469;-77
2020/12/17 02:08:50;;;;;;;6.03;5.43;;;10.00;99.90;;;;;;4972579;28;20822;-78
2020/12/17 02:11:16;;;;;;;6.53;5.53;;;10.00;99.90;;;;;;4973420;28;20190;-77
2020/12/17 02:13:41;;;;;;;5.77;5.00;;;10.10;99.90;;;;;;4972861;28;20473;-78
2020/12/17 02:16:07;;;;;;;8.70;6.00;;;10.10;99.90;;;;;;4969976;28;20427;-79
2020/12/17 02:18:34;;;;;;;5.50;5.00;;;10.00;99.90;;;;;;4960140;28;21026;-77
2020/12/17 02:21:00;;;;;;;6.70;5.67;;;10.00;99.90;;;;;;4972841;28;20203;-77
2020/12/17 02:23:26;;;;;;;9.97;6.03;;;10.20;99.90;;;;;;4973198;28;20422;-77
2020/12/17 02:25:52;;;;;;;6.30;5.70;;;10.20;99.90;;;;;;4984391;28;20455;-77
2020/12/17 02:28:20;;;;;;;6.73;5.47;;;10.20;99.90;;;;;;4972965;28;20518;-77
2020/12/17 02:30:46;;;;;;;7.70;5.80;;;10.20;99.90;;;;;;4972505;28;20443;-77
2020/12/17 02:33:13;;;;;;;6.00;5.40;;;10.20;99.90;;;;;;4973015;28;20406;-77
2020/12/17 02:35:39;;;;;;;5.67;5.00;;;10.10;99.90;;;;;;4955762;28;20459;-78
2020/12/17 02:38:05;;;;;;;7.63;5.67;;;10.10;99.90;;;;;;4971237;28;20434;-78
2020/12/17 02:40:32;;;;;;;9.40;5.57;;;10.10;99.90;;;;;;4972317;28;20450;-78
2020/12/17 02:42:58;;;;;;;6.30;4.97;;;10.10;99.90;;;;;;4972759;28;20422;-78
2020/12/17 02:45:23;;;;;;;6.50;5.80;;;10.10;99.90;;;;;;4953023;28;20938;-79
2020/12/17 02:47:49;;;;;;;7.17;6.17;;;10.10;99.90;;;;;;4969626;28;20226;-78
2020/12/17 02:50:15;;;;;;;6.20;5.07;;;10.10;99.90;;;;;;4971989;28;20282;-78
2020/12/17 02:52:41;;;;;;;7.10;6.47;;;10.00;99.90;;;;;;4972123;28;20187;-78
2020/12/17 02:55:08;;;;;;;8.90;5.80;;;10.10;99.90;;;;;;4969836;28;20221;-78
2020/12/17 02:57:34;;;;;;;6.23;4.70;;;10.10;99.90;;;;;;4966330;28;20792;-78
2020/12/17 03:00:01;;;;;;;6.90;5.03;;;10.10;99.90;;;;;;4971942;28;20455;-77
2020/12/17 03:02:27;;;;;;;10.70;6.10;;;10.20;99.90;;;;;;4972672;28;20458;-78
2020/12/17 03:04:53;;;;;;;8.37;5.60;;;10.20;99.90;;;;;;4970693;28;20545;-77
2020/12/17 03:07:18;;;;;;;9.57;6.20;;;10.20;99.90;;;;;;4971701;28;20199;-77
2020/12/17 03:09:44;;;;;;;9.73;5.50;;;10.20;99.90;;;;;;4986865;28;20211;-77
2020/12/17 03:12:10;;;;;;;7.57;5.73;;;10.20;99.90;;;;;;4972426;28;20266;-78
2020/12/17 03:14:36;;;;;;;5.80;5.30;;;10.10;99.90;;;;;;4971303;28;20606;-78
2020/12/17 03:17:02;;;;;;;8.30;5.43;;;10.10;99.90;;;;;;4962641;28;20431;-77
2020/12/17 03:19:27;;;;;;;8.03;6.67;;;10.10;99.90;;;;;;4985371;28;20211;-77
2020/12/17 03:21:53;;;;;;;6.10;5.50;;;10.10;99.90;;;;;;4972057;28;20433;-77
2020/12/17 03:24:19;;;;;;;7.10;5.70;;;10.30;99.90;;;;;;4971711;28;20230;-77
2020/12/17 03:26:44;;;;;;;8.57;5.57;;;10.20;99.90;;;;;;4964434;28;20211;-78
2020/12/17 03:29:10;;;;;;;6.53;5.93;;;10.20;99.90;;;;;;4968616;28;20270;-78
2020/12/17 03:31:36;;;;;;;10.20;6.30;;;10.20;99.90;;;;;;4972358;28;20193;-78
2020/12/17 03:34:01;;;;;;;8.60;6.10;;;10.20;99.90;;;;;;4966802;28;20215;-77
2020/12/17 03:36:27;;;;;;;6.60;5.80;;;10.20;99.90;;;;;;4958131;28;20176;-77
2020/12/17 03:38:53;;;;;;;7.47;6.20;;;10.10;99.90;;;;;;4985835;28;20176;-78
2020/12/17 03:41:19;;;;;;;14.30;5.80;;;10.10;99.90;;;;;;4968004;28;20243;-77
2020/12/17 03:43:45;;;;;;;7.30;5.70;;;10.00;99.90;;;;;;4964379;28;20418;-77
2020/12/17 03:46:10;;;;;;;8.80;5.57;;;10.00;99.90;;;;;;4958378;28;20454;-77
2020/12/17 03:48:36;;;;;;;6.30;5.70;;;10.10;99.90;;;;;;4964182;28;20171;-78
2020/12/17 03:51:02;;;;;;;8.37;6.77;;;10.20;99.90;;;;;;4971429;28;20207;-77
2020/12/17 03:53:27;;;;;;;9.13;6.73;;;10.20;99.90;;;;;;4972200;28;20172;-77
2020/12/17 03:55:53;;;;;;;7.00;5.90;;;10.20;99.90;;;;;;4970413;28;20266;-77
2020/12/17 03:58:19;;;;;;;7.97;5.80;;;10.20;99.90;;;;;;4971965;28;20550;-77
2020/12/17 04:00:45;;;;;;;7.50;6.27;;;10.10;99.90;;;;;;4971760;28;20302;-77
2020/12/17 04:03:11;;;;;;;6.60;5.40;;;10.10;99.90;;;;;;4986410;28;20171;-78
2020/12/17 04:05:36;;;;;;;6.40;5.80;;;10.10;99.90;;;;;;4985468;28;20459;-77
2020/12/17 04:08:02;;;;;;;10.03;6.23;;;10.10;99.90;;;;;;4971127;28;20230;-78
2020/12/17 04:10:28;;;;;;;10.30;6.10;;;10.10;99.90;;;;;;4971467;28;20203;-77
2020/12/17 04:12:54;;;;;;;7.17;5.93;;;10.20;99.90;;;;;;4986917;28;20429;-77
2020/12/17 04:15:20;;;;;;;7.57;6.17;;;10.20;99.90;;;;;;4957497;28;20291;-77
2020/12/17 04:17:45;;;;;;;6.87;6.17;;;10.10;99.90;;;;;;4973540;28;20179;-77
2020/12/17 04:20:11;;;;;;;7.53;5.80;;;10.10;99.90;;;;;;4974856;28;20298;-77
2020/12/17 04:22:37;;;;;;;9.90;6.37;;;10.10;99.90;;;;;;4975822;28;20195;-77
2020/12/17 04:25:03;;;;;;;8.70;5.70;;;10.10;99.90;;;;;;4986379;28;20232;-77
2020/12/17 04:27:28;;;;;;;7.30;6.60;;;10.10;99.90;;;;;;4973316;28;20203;-78
2020/12/17 04:29:54;;;;;;;6.90;5.73;;;10.10;99.90;;;;;;4974498;28;20562;-77
2020/12/17 04:32:20;;;;;;;10.17;6.70;;;10.10;99.90;;;;;;4975450;28;20654;-77
2020/12/17 04:34:45;;;;;;;6.80;6.10;;;10.10;99.90;;;;;;4974548;28;20682;-77
2020/12/17 04:37:12;;;;;;;6.33;5.67;;;10.10;99.90;;;;;;4970861;28;20430;-78
2020/12/17 04:39:38;;;;;;;9.10;5.87;;;10.10;99.90;;;;;;4974627;28;20578;-78
2020/12/17 04:42:05;;;;;;;8.17;6.13;;;10.10;99.90;;;;;;4974973;28;20430;-77
2020/12/17 04:44:31;;;;;;;13.60;6.73;;;10.00;99.90;;;;;;4974369;28;20709;-77
2020/12/17 04:47:02;;;;;;;8.73;6.30;;;10.00;99.90;;;;;;4973928;28;20466;-77
2020/12/17 04:49:50;;;;;;;11.33;7.17;;;9.90;99.90;;;;;;4974270;28;20813;-78
2020/12/17 04:52:18;;;;;;;8.37;7.17;;;9.90;99.90;;;;;;4970143;28;20431;-79
2020/12/17 04:54:44;;;;;;;8.67;6.63;;;9.80;99.90;;;;;;4970096;28;20438;-78
2020/12/17 04:57:11;;;;;;;6.60;5.97;;;9.80;99.90;;;;;;4963848;28;20423;-78
2020/12/17 04:59:55;;;;;;;6.93;5.77;;;9.80;99.90;;;;;;4969418;28;20434;-78
2020/12/17 05:02:22;;;;;;;6.00;5.10;;;9.90;99.90;;;;;;4989683;28;20953;-78
2020/12/17 05:04:50;;;;;;;11.57;6.03;;;9.90;99.90;;;;;;4973306;28;20451;-78
2020/12/17 05:07:21;;;;;;;5.90;5.30;;;9.90;99.90;;;;;;4985100;28;20474;-78
2020/12/17 05:09:48;;;;;;;7.13;5.87;;;10.00;99.90;;;;;;4968828;28;20439;-78
2020/12/17 05:12:14;;;;;;;7.10;6.30;;;10.00;99.90;;;;;;4989572;28;21008;-78
2020/12/17 05:14:41;;;;;;;9.33;6.47;;;10.00;99.90;;;;;;4972857;28;20445;-78
2020/12/17 05:17:08;;;;;;;10.80;7.03;;;10.00;99.90;;;;;;4963676;28;20798;-78
2020/12/17 05:19:34;;;;;;;6.83;6.13;;;10.00;99.90;;;;;;4965781;28;20446;-77
2020/12/17 05:22:01;;;;;;;9.77;5.30;;;10.00;99.90;;;;;;4974367;28;20426;-77
2020/12/17 05:24:28;;;;;;;6.17;5.67;;;10.00;99.90;;;;;;4973866;28;20442;-77
2020/12/17 05:26:55;;;;;;;7.07;6.37;;;10.00;99.90;;;;;;4979360;28;20512;-77
2020/12/17 05:29:22;;;;;;;9.23;6.33;;;9.90;99.90;;;;;;4977953;28;20504;-77
2020/12/17 05:31:48;;;;;;;7.27;5.73;;;9.80;99.90;;;;;;4974191;28;20427;-78
2020/12/17 05:34:15;;;;;;;6.43;5.43;;;9.80;99.90;;;;;;4973296;28;20438;-77
2020/12/17 05:36:42;;;;;;;6.30;5.23;;;9.90;99.90;;;;;;4972909;28;20937;-77
2020/12/17 05:39:12;;;;;;;8.00;5.43;;;10.00;99.90;;;;;;4973113;28;20470;-77
2020/12/17 05:41:39;;;;;;;6.00;5.40;;;10.00;99.90;;;;;;4976433;28;20435;-78
2020/12/17 05:44:20;;;;;;;8.00;5.50;;;10.00;99.90;;;;;;4971632;28;20445;-77
2020/12/17 05:46:47;;;;;;;6.90;6.20;;;10.00;99.90;;;;;;4965555;28;20459;-77
2020/12/17 05:49:27;;;;;;;7.57;5.50;;;10.00;99.90;;;;;;4960859;28;20441;-78
2020/12/17 05:52:08;;;;;;;6.03;5.40;;;10.00;99.90;;;;;;4973835;28;20887;-77
2020/12/17 05:54:34;;;;;;;9.83;5.90;;;10.10;99.90;;;;;;4972832;28;20449;-77
2020/12/17 05:57:13;;;;;;;7.57;6.70;;;10.10;99.90;;;;;;4967623;28;20433;-77
2020/12/17 05:59:40;;;;;;;8.03;5.90;;;10.00;99.90;;;;;;4972042;28;20458;-78
2020/12/17 06:02:22;;;;;;;5.87;5.17;;;10.00;99.90;;;;;;4988503;28;20488;-77
2020/12/17 06:05:06;;;;;;;7.83;7.03;;;10.00;99.90;;;;;;4972502;28;20469;-78
2020/12/17 06:07:35;;;;;;;6.17;5.53;;;9.90;99.90;;;;;;4959601;28;20993;-78
2020/12/17 06:10:06;;;;;;;9.37;6.60;;;9.80;99.90;;;;;;4966563;28;20595;-78
2020/12/17 06:12:34;;;;;;;10.90;7.20;;;9.90;99.90;;;;;;4973517;28;20462;-79
2020/12/17 06:15:05;;;;;;;6.40;5.80;;;9.90;99.90;;;;;;4964708;28;20555;-79
2020/12/17 06:17:37;;;;;;;8.47;6.80;;;9.80;99.90;;;;;;4963482;28;20428;-79
2020/12/17 06:20:04;;;;;;;9.87;6.80;;;9.80;99.90;;;;;;4981892;28;20451;-79
2020/12/17 06:22:31;;;;;;;8.90;6.73;;;9.80;99.90;;;;;;4973706;28;20932;-79
2020/12/17 06:25:00;;;;;;;6.93;6.33;;;9.90;99.90;;;;;;4974933;28;20869;-81
2020/12/17 06:27:44;;;;;;;7.17;6.23;;;10.00;99.90;;;;;;4975613;28;20488;-81
2020/12/17 06:30:10;;;;;;;7.90;6.57;;;9.90;99.90;;;;;;4974075;28;20450;-79
2020/12/17 06:32:36;;;;;;;6.77;5.30;;;9.80;99.90;;;;;;4973938;28;20427;-80
2020/12/17 06:35:20;;;;;;;10.73;5.63;;;9.70;99.90;;;;;;4974654;28;20219;-79
2020/12/17 06:37:46;;;;;;;4.53;4.13;;;9.70;99.90;;;;;;4969751;28;20434;-79
2020/12/17 06:40:24;;;;;;;4.77;3.13;;;9.60;99.90;;;;;;4974697;28;20457;-79
2020/12/17 06:42:51;;;;;;;3.13;2.90;;;9.70;99.90;;;;;;4974347;28;20436;-80
2020/12/17 06:45:25;;;;;;;4.60;3.10;;;9.70;99.90;;;;;;4985958;28;20520;-80
2020/12/17 06:47:51;;;;;;;3.77;3.40;;;9.60;99.90;;;;;;4972358;28;20456;-80
2020/12/17 06:50:38;;;;;;;5.27;3.30;;;9.70;99.90;;;;;;4974598;28;20438;-80
2020/12/17 06:53:12;;;;;;;3.83;3.50;;;9.60;99.90;;;;;;4974620;28;20197;-80
2020/12/17 06:55:41;;;;;;;4.43;2.63;;;9.60;99.90;;;;;;4957354;28;20456;-78
2020/12/17 06:58:07;;;;;;;5.57;3.23;;;9.50;99.90;;;;;;4972137;28;20442;-79
2020/12/17 07:00:32;;;;;;;4.60;3.03;;;9.50;99.90;;;;;;4972518;28;20995;-78
2020/12/17 07:02:58;;;;;;;4.07;2.50;;;9.50;99.90;;;;;;4972111;28;20429;-78
2020/12/17 07:05:36;;;;;;;4.23;2.00;;;9.50;99.90;;;;;;4965771;28;20273;-80
2020/12/17 07:08:02;;;;;;;2.80;2.30;;;9.40;99.90;;;;;;4970833;28;20667;-80
2020/12/17 07:10:30;;;;;;;2.20;1.80;;;9.40;99.90;;;;;;4972974;28;20521;-80
2020/12/17 07:12:56;;;;;;;2.07;1.90;;;9.40;99.90;;;;;;4973532;28;20440;-80
2020/12/17 07:15:35;;;;;;;1.53;1.43;;;9.40;99.90;;;;;;4972111;28;20458;-79
2020/12/17 07:18:26;;;;;;;2.23;1.50;;;9.40;99.90;;;;;;4970950;28;20819;-80
2020/12/17 07:20:55;;;;;;;2.30;1.87;;;9.40;99.90;;;;;;4952432;28;20443;-78
2020/12/17 07:23:21;;;;;;;1.30;1.20;;;9.40;99.90;;;;;;4954136;28;20907;-78
2020/12/17 07:25:52;;;;;;;2.43;1.63;;;9.40;99.90;;;;;;4966103;28;20466;-78
2020/12/17 07:28:24;;;;;;;4.00;1.77;;;9.40;99.90;;;;;;4953076;28;20518;-79
2020/12/17 07:30:53;;;;;;;1.30;1.20;;;9.30;99.90;;;;;;4965152;28;21016;-78
2020/12/17 07:33:42;;;;;;;2.67;1.80;;;9.30;99.90;;;;;;4986364;28;20415;-79
2020/12/17 07:36:10;;;;;;;1.97;1.57;;;9.30;99.90;;;;;;4971141;28;20533;-79
2020/12/17 07:38:37;;;;;;;5.40;1.67;;;9.30;99.90;;;;;;4972988;28;20488;-79
2020/12/17 07:41:03;;;;;;;1.83;1.10;;;9.30;99.90;;;;;;4958046;28;20799;-79
2020/12/17 07:43:40;;;;;;;2.83;1.40;;;9.30;99.90;;;;;;4955389;28;20411;-78
2020/12/17 07:46:07;;;;;;;3.73;1.80;;;9.20;99.90;;;;;;4956403;28;20477;-80
2020/12/17 07:48:49;;;;;;;1.50;1.30;;;9.20;99.90;;;;;;4972717;28;20861;-80
2020/12/17 07:51:14;;;;;;;2.77;2.10;;;9.10;99.90;;;;;;4973104;28;20434;-79
2020/12/17 07:53:42;;;;;;;1.30;1.20;;;9.20;99.90;;;;;;4977172;28;20477;-80
2020/12/17 07:56:08;;;;;;;1.33;1.20;;;9.20;99.90;;;;;;4967625;28;20639;-78
2020/12/17 07:58:35;;;;;;;2.47;1.43;;;9.20;99.90;;;;;;4975340;28;20410;-78
2020/12/17 08:01:02;;;;;;;1.20;0.80;;;9.20;99.90;;;;;;4974755;28;20497;-78
2020/12/17 08:03:28;;;;;;;2.20;1.37;;;9.20;99.90;;;;;;4990172;28;20925;-78
2020/12/17 08:06:05;;;;;;;1.03;0.93;;;9.10;99.90;;;;;;4972306;28;20466;-78
2020/12/17 08:08:30;;;;;;;1.60;1.27;;;9.10;99.90;;;;;;4955994;29;20477;-78
2020/12/17 08:10:56;;;;;;;2.60;1.70;;;9.10;99.90;;;;;;4961832;28;20813;-78
2020/12/17 08:13:22;;;;;;;3.57;2.00;;;9.10;99.90;;;;;;4975350;28;20167;-78
2020/12/17 08:15:58;;;;;;;7.27;4.27;;;9.00;99.90;;;;;;4974150;28;20201;-79
2020/12/17 08:18:25;;;;;;;6.63;6.03;;;9.00;99.90;;;;;;4957267;28;20491;-79
2020/12/17 08:21:11;;;;;;;3.10;2.80;;;9.00;99.90;;;;;;4974771;28;20485;-79
2020/12/17 08:23:39;;;;;;;3.10;2.40;;;9.10;99.90;;;;;;4975516;28;20413;-80
2020/12/17 08:26:06;;;;;;;2.17;1.87;;;9.10;99.90;;;;;;4972711;28;20512;-79
2020/12/17 08:28:34;;;;;;;2.80;1.37;;;9.10;99.90;;;;;;4974357;28;20460;-79
2020/12/17 08:31:21;;;;;;;1.80;1.33;;;9.10;99.90;;;;;;4974304;28;20450;-79
2020/12/17 08:33:56;;;;;;;2.83;1.70;;;9.00;99.90;;;;;;4966697;28;20404;-80
2020/12/17 08:36:30;;;;;;;2.20;1.43;;;9.10;99.90;;;;;;4965754;28;20430;-79
2020/12/17 08:39:00;;;;;;;1.60;1.47;;;9.10;99.90;;;;;;4973997;28;20415;-79
2020/12/17 08:41:29;;;;;;;2.27;1.40;;;9.00;99.90;;;;;;4974995;28;20431;-79
2020/12/17 08:44:01;;;;;;;2.50;1.40;;;9.10;99.90;;;;;;4974173;28;20450;-80
2020/12/17 08:46:27;;;;;;;3.60;2.03;;;9.10;99.90;;;;;;4970575;28;20487;-78
2020/12/17 08:48:54;;;;;;;2.50;1.87;;;9.10;99.90;;;;;;4973424;28;20415;-78
2020/12/17 08:51:22;;;;;;;3.40;1.80;;;9.10;99.90;;;;;;4968683;28;20838;-77
2020/12/17 08:53:48;;;;;;;2.33;2.07;;;9.00;99.90;;;;;;4956465;28;20962;-78
2020/12/17 08:56:19;;;;;;;2.33;1.50;;;9.10;99.90;;;;;;4954852;28;20443;-78
2020/12/17 08:58:50;;;;;;;1.40;1.20;;;9.00;99.90;;;;;;4959968;28;20277;-78
2020/12/17 09:01:35;;;;;;;2.03;1.00;;;9.10;99.90;;;;;;4974012;28;20435;-78
2020/12/17 09:04:07;;;;;;;1.93;1.03;;;9.10;99.90;;;;;;4973538;28;20507;-78
2020/12/17 09:06:33;;;;;;;1.60;1.10;;;9.10;99.90;;;;;;4972526;28;20508;-78
2020/12/17 09:09:16;;;;;;;2.30;0.97;;;9.10;99.90;;;;;;4973360;28;20510;-77
2020/12/17 09:11:46;;;;;;;1.37;0.90;;;9.10;99.90;;;;;;4974248;28;20462;-79
2020/12/17 09:14:19;;;;;;;1.33;0.57;;;9.10;99.90;;;;;;4973351;28;20456;-77
2020/12/17 09:16:46;;;;;;;1.10;0.67;;;9.10;99.90;;;;;;4972264;28;20439;-79
2020/12/17 09:19:11;;;;;;;1.87;0.80;;;9.20;99.90;;;;;;4973452;28;20461;-79
2020/12/17 09:21:57;;;;;;;2.10;0.50;;;9.30;99.90;;;;;;4974015;28;20439;-79
2020/12/17 09:24:30;;;;;;;2.37;0.73;;;9.30;99.90;;;;;;4973148;28;20302;-79
2020/12/17 09:27:18;;;;;;;0.70;0.60;;;9.40;99.90;;;;;;4973369;28;20467;-78
2020/12/17 09:30:09;;;;;;;1.37;0.70;;;9.50;99.90;;;;;;4973667;28;20456;-78
2020/12/17 09:32:50;;;;;;;1.93;0.90;;;9.60;99.90;;;;;;4976393;28;20793;-78
2020/12/17 09:35:15;;;;;;;1.10;0.90;;;9.70;99.90;;;;;;4973942;28;20505;-77
2020/12/17 09:37:56;;;;;;;0.83;0.60;;;9.70;99.90;;;;;;4977306;28;20432;-77
2020/12/17 09:40:23;;;;;;;1.10;0.80;;;9.80;99.90;;;;;;4973077;28;20224;-78
2020/12/17 09:43:03;;;;;;;2.20;0.93;;;9.70;99.90;;;;;;4971718;28;20469;-77
2020/12/17 09:45:37;;;;;;;2.10;0.60;;;9.80;99.90;;;;;;4972041;28;20999;-79
2020/12/17 09:48:24;;;;;;;1.77;0.80;;;9.90;99.90;;;;;;4972828;28;20459;-78
2020/12/17 09:50:54;;;;;;;1.73;1.37;;;9.90;99.90;;;;;;4958376;28;20484;-79
2020/12/17 09:53:21;;;;;;;0.80;0.70;;;9.80;99.90;;;;;;4966552;28;20418;-77
2020/12/17 09:55:48;;;;;;;4.33;1.47;;;9.80;99.90;;;;;;4972109;28;20451;-77
2020/12/17 09:58:13;;;;;;;1.40;1.13;;;9.80;99.90;;;;;;4972456;28;20504;-79
2020/12/17 10:00:39;;;;;;;2.47;1.20;;;9.90;99.90;;;;;;4987579;28;20550;-79
2020/12/17 10:03:05;;;;;;;3.17;1.10;;;9.90;99.90;;;;;;4987088;28;20453;-78
2020/12/17 10:05:31;;;;;;;1.53;0.93;;;9.80;99.90;;;;;;4970717;28;20465;-77
2020/12/17 10:07:57;;;;;;;2.00;1.53;;;10.00;99.90;;;;;;4972628;28;20210;-79
2020/12/17 10:10:23;;;;;;;2.17;1.47;;;10.00;99.90;;;;;;4967841;28;20452;-78
2020/12/17 10:12:50;;;;;;;2.17;1.23;;;10.10;99.90;;;;;;4958925;28;20333;-79
2020/12/17 10:15:15;;;;;;;2.27;1.73;;;10.10;99.90;;;;;;4969843;28;20285;-77
2020/12/17 10:17:41;;;;;;;2.43;1.50;;;10.10;99.90;;;;;;4964397;28;20524;-78
2020/12/17 10:20:09;;;;;;;4.07;1.20;;;10.10;99.90;;;;;;4972575;28;20211;-78
2020/12/17 10:22:36;;;;;;;3.20;1.33;;;10.20;99.90;;;;;;4970502;28;20194;-79
2020/12/17 10:25:02;;;;;;;3.67;2.40;;;10.20;99.90;;;;;;4985003;28;20458;-78
2020/12/17 10:27:28;;;;;;;3.90;1.40;;;10.30;99.90;;;;;;4972026;28;20468;-80
2020/12/17 10:29:54;;;;;;;2.80;1.20;;;10.40;99.90;;;;;;4972648;28;20820;-78
2020/12/17 10:32:20;;;;;;;3.20;1.37;;;10.40;99.90;;;;;;4972562;28;20427;-78
2020/12/17 10:34:45;;;;;;;2.57;1.20;;;10.40;99.90;;;;;;4971969;28;20483;-78
2020/12/17 10:37:11;;;;;;;3.50;1.43;;;10.30;99.90;;;;;;4964607;28;20250;-78
2020/12/17 10:39:37;;;;;;;2.47;1.80;;;10.30;99.90;;;;;;4972459;28;20711;-79
2020/12/17 10:42:03;;;;;;;3.07;1.87;;;10.30;99.90;;;;;;4986724;28;20202;-78
2020/12/17 10:44:30;;;;;;;4.00;1.77;;;10.30;99.90;;;;;;4955741;28;20294;-78
2020/12/17 10:46:57;;;;;;;7.13;1.77;;;10.30;99.90;;;;;;4961709;28;20486;-77
2020/12/17 10:49:23;;;;;;;7.40;1.90;;;10.40;99.90;;;;;;4952711;28;20502;-79
2020/12/17 10:51:53;;;;;;;3.73;1.23;;;10.50;99.90;;;;;;4985807;28;20957;-79
2020/12/17 10:54:19;;;;;;;3.20;1.00;;;10.50;99.90;;;;;;4970922;28;20473;-78
2020/12/17 10:56:46;;;;;;;6.50;1.50;;;10.50;99.90;;;;;;4972023;28;20844;-78
2020/12/17 10:59:12;;;;;;;2.47;1.20;;;10.40;99.90;;;;;;4965663;28;20260;-77
2020/12/17 11:01:38;;;;;;;4.73;1.90;;;10.40;99.90;;;;;;4972321;28;20430;-79
2020/12/17 11:04:04;;;;;;;3.20;1.60;;;10.30;99.90;;;;;;4986608;28;20789;-78
2020/12/17 11:06:30;;;;;;;1.60;1.13;;;10.40;99.90;;;;;;4960940;28;20447;-78
2020/12/17 11:08:55;;;;;;;3.60;1.50;;;10.40;99.90;;;;;;4971889;28;20170;-77
2020/12/17 11:11:21;;;;;;;2.63;1.10;;;10.30;99.90;;;;;;4971875;28;20254;-79
2020/12/17 11:13:47;;;;;;;1.63;1.53;;;10.30;99.90;;;;;;4969504;28;20938;-77
2020/12/17 11:16:13;;;;;;;3.63;1.37;;;10.30;99.90;;;;;;4961467;28;20179;-78
2020/12/17 11:18:41;;;;;;;2.27;1.37;;;10.40;99.90;;;;;;4972116;28;20205;-77
2020/12/17 11:21:07;;;;;;;3.03;1.13;;;10.50;99.90;;;;;;4971459;28;20445;-79
2020/12/17 11:23:36;;;;;;;2.90;1.50;;;10.60;99.90;;;;;;4986696;28;21001;-78
2020/12/17 11:26:05;;;;;;;1.93;1.10;;;10.70;99.90;;;;;;4974900;28;20465;-78
2020/12/17 11:28:31;;;;;;;2.93;2.40;;;10.80;99.90;;;;;;4964735;28;20456;-78
2020/12/17 11:30:57;;;;;;;1.77;1.20;;;10.80;99.90;;;;;;5010401;28;20809;-78
2020/12/17 11:33:25;;;;;;;2.80;1.50;;;10.80;99.90;;;;;;4976614;28;20413;-79
2020/12/17 11:35:51;;;;;;;2.43;1.70;;;10.80;99.90;;;;;;4988173;28;20217;-78
2020/12/17 11:38:17;;;;;;;2.53;1.40;;;10.90;99.90;;;;;;4973055;28;20414;-77
2020/12/17 11:40:43;;;;;;;2.50;1.60;;;10.80;99.90;;;;;;4974960;28;20446;-78
2020/12/17 11:43:08;;;;;;;2.00;1.60;;;10.90;99.90;;;;;;4990982;28;20205;-78
2020/12/17 11:45:34;;;;;;;2.03;1.50;;;10.90;99.90;;;;;;4988640;28;20533;-78
2020/12/17 11:48:00;;;;;;;2.83;1.50;;;10.90;99.90;;;;;;4972563;28;20242;-78
2020/12/17 11:50:26;;;;;;;3.63;1.67;;;10.90;99.90;;;;;;4989808;28;20453;-78
2020/12/17 11:52:52;;;;;;;2.23;1.97;;;10.90;99.90;;;;;;4974623;28;20191;-77
2020/12/17 11:55:18;;;;;;;2.33;1.33;;;10.80;99.90;;;;;;4970099;28;20206;-78
2020/12/17 11:57:47;;;;;;;2.40;1.33;;;10.80;99.90;;;;;;4984579;28;20435;-77
2020/12/17 12:00:14;;;;;;;3.20;1.73;;;10.90;99.90;;;;;;4971831;28;20458;-78
2020/12/17 12:02:44;;;;;;;3.67;1.60;;;10.80;99.90;;;;;;4972911;28;20485;-77
2020/12/17 12:05:09;;;;;;;3.60;1.87;;;10.90;99.90;;;;;;4974464;28;20458;-77
2020/12/17 12:07:35;;;;;;;4.83;2.10;;;10.80;99.90;;;;;;4971168;28;21023;-77
2020/12/17 12:10:05;;;;;;;2.07;1.40;;;10.90;99.90;;;;;;4973515;28;20218;-78
2020/12/17 12:12:31;;;;;;;4.30;1.70;;;10.90;99.90;;;;;;4975135;28;20462;-77
2020/12/17 12:14:57;;;;;;;2.83;1.20;;;10.90;99.90;;;;;;4974089;28;20454;-78
2020/12/17 12:17:23;;;;;;;3.03;1.63;;;11.00;99.90;;;;;;4971425;28;20434;-78
2020/12/17 12:19:49;;;;;;;1.73;1.63;;;11.00;99.90;;;;;;4973678;28;20289;-79
2020/12/17 12:22:14;;;;;;;2.30;1.60;;;11.00;99.90;;;;;;4955895;28;20439;-79
2020/12/17 12:24:40;;;;;;;3.07;1.73;;;10.90;99.90;;;;;;4973908;28;20454;-78
2020/12/17 12:27:06;;;;;;;3.03;1.50;;;11.00;99.90;;;;;;4971833;28;20246;-77
2020/12/17 12:29:32;;;;;;;3.30;1.83;;;11.00;99.90;;;;;;4972326;28;20196;-77
2020/12/17 12:31:58;;;;;;;1.43;1.23;;;11.00;99.90;;;;;;4962798;28;20430;-76
2020/12/17 12:34:25;;;;;;;2.97;1.90;;;10.90;99.90;;;;;;4973674;28;20502;-77
2020/12/17 12:36:56;;;;;;;1.67;1.07;;;11.00;99.90;;;;;;4965945;28;20168;-78
2020/12/17 12:39:22;;;;;;;2.10;1.27;;;11.00;99.10;;;;;;4966668;28;20470;-77
2020/12/17 12:41:49;;;;;;;2.70;1.50;;;11.00;99.10;;;;;;4974759;28;20430;-77
2020/12/17 12:44:16;;;;;;;1.80;1.27;;;10.90;99.10;;;;;;4972150;28;20528;-79
2020/12/17 12:46:41;;;;;;;2.43;1.30;;;10.90;99.30;;;;;;4955355;28;20463;-78
2020/12/17 12:49:08;;;;;;;3.13;1.20;;;10.80;99.90;;;;;;4962270;28;20445;-77
2020/12/17 12:51:34;;;;;;;3.30;1.50;;;10.80;99.40;;;;;;4974335;28;20441;-78
2020/12/17 12:54:01;;;;;;;2.73;1.43;;;10.90;99.80;;;;;;4973572;28;20427;-78
2020/12/17 12:56:27;;;;;;;2.60;1.10;;;11.00;99.20;;;;;;4973246;28;20936;-77